createdAt,value
2023-05-10T00:03:34.486Z,2.95
2023-05-10T00:06:03.872Z,3.10
2023-05-10T00:08:32.511Z,2.92
2023-05-10T00:11:00.779Z,3.20
2023-05-10T00:13:29.584Z,3.08
2023-05-10T00:15:58.137Z,3.10
2023-05-10T00:18:25.904Z,3.03
2023-05-10T00:20:53.997Z,2.80
2023-05-10T00:23:23.357Z,2.80
2023-05-10T00:25:53.389Z,3.42
2023-05-10T00:28:35.136Z,2.95
2023-05-10T00:31:07.804Z,2.90
2023-05-10T00:33:36.425Z,2.80
2023-05-10T00:36:04.475Z,2.90
2023-05-10T00:38:33.072Z,3.30
2023-05-10T00:41:01.066Z,2.92
2023-05-10T00:43:35.531Z,3.00
2023-05-10T00:46:07.541Z,3.13
2023-05-10T00:48:39.712Z,2.90
2023-05-10T00:51:08.299Z,3.30
2023-05-10T00:53:38.637Z,2.75
2023-05-10T00:56:07.937Z,2.95
2023-05-10T00:58:37.791Z,3.22
2023-05-10T01:01:08.569Z,2.80
2023-05-10T01:03:39.132Z,2.70
2023-05-10T01:06:11.547Z,2.70
2023-05-10T01:08:42.353Z,2.85
2023-05-10T01:11:18.798Z,3.33
2023-05-10T01:13:54.220Z,3.08
2023-05-10T01:16:31.963Z,3.28
2023-05-10T01:19:00.843Z,2.90
2023-05-10T01:21:40.894Z,3.45
2023-05-10T01:24:24.148Z,2.92
2023-05-10T01:27:19.913Z,3.10
2023-05-10T01:30:09.243Z,3.15
2023-05-10T01:33:04.508Z,3.13
2023-05-10T01:35:42.025Z,3.38
2023-05-10T01:38:22.416Z,3.00
2023-05-10T01:41:11.111Z,3.10
2023-05-10T01:44:07.013Z,2.90
2023-05-10T01:46:40.248Z,3.03
2023-05-10T01:49:13.483Z,2.70
2023-05-10T01:51:57.041Z,2.67
2023-05-10T01:54:31.561Z,3.00
2023-05-10T01:57:10.393Z,3.30
2023-05-10T01:59:42.408Z,3.00
2023-05-10T02:02:13.782Z,3.25
2023-05-10T02:04:44.040Z,3.42
2023-05-10T02:07:13.777Z,3.65
2023-05-10T02:09:45.859Z,3.72
2023-05-10T02:12:15.425Z,3.58
2023-05-10T02:14:45.531Z,3.47
2023-05-10T02:17:14.690Z,3.30
2023-05-10T02:19:44.758Z,3.22
2023-05-10T02:22:15.318Z,3.10
2023-05-10T02:24:45.145Z,3.08
2023-05-10T02:27:15.250Z,2.63
2023-05-10T02:29:45.302Z,3.05
2023-05-10T02:32:14.218Z,2.80
2023-05-10T02:34:43.211Z,3.03
2023-05-10T02:37:12.029Z,2.95
2023-05-10T02:39:45.127Z,3.30
2023-05-10T02:42:24.238Z,3.22
2023-05-10T02:44:54.668Z,3.13
2023-05-10T02:47:22.441Z,2.97
2023-05-10T02:49:51.222Z,2.92
2023-05-10T02:52:30.501Z,3.00
2023-05-10T02:55:04.466Z,2.88
2023-05-10T02:57:42.825Z,3.22
2023-05-10T03:00:13.757Z,3.10
2023-05-10T03:02:43.326Z,3.30
2023-05-10T03:05:11.429Z,3.05
2023-05-10T03:07:38.915Z,3.35
2023-05-10T03:10:07.714Z,3.30
2023-05-10T03:12:59.765Z,2.78
2023-05-10T03:15:53.062Z,3.08
2023-05-10T03:18:31.070Z,3.10
2023-05-10T03:21:10.190Z,2.95
2023-05-10T03:23:46.354Z,3.00
2023-05-10T03:26:30.319Z,3.40
2023-05-10T03:29:13.843Z,2.80
2023-05-10T03:31:43.461Z,2.92
2023-05-10T03:34:11.889Z,2.80
2023-05-10T03:36:40.445Z,3.25
2023-05-10T03:39:08.563Z,3.08
2023-05-10T03:41:36.759Z,2.80
2023-05-10T03:44:07.759Z,2.30
2023-05-10T03:46:36.452Z,2.72
2023-05-10T03:49:10.575Z,2.70
2023-05-10T03:51:38.507Z,2.72
2023-05-10T03:54:07.148Z,2.97
2023-05-10T03:56:35.553Z,2.85
2023-05-10T03:59:11.594Z,2.72
2023-05-10T04:01:48.641Z,2.60
2023-05-10T04:04:17.392Z,2.80
2023-05-10T04:06:46.884Z,2.60
2023-05-10T04:09:19.214Z,3.00
2023-05-10T04:11:47.358Z,3.05
2023-05-10T04:14:15.698Z,3.33
2023-05-10T04:16:47.390Z,3.10
2023-05-10T04:19:15.537Z,3.50
2023-05-10T04:21:43.797Z,3.35
2023-05-10T04:24:13.529Z,2.92
2023-05-10T04:26:42.143Z,2.97
2023-05-10T04:29:14.355Z,2.95
2023-05-10T04:31:42.193Z,3.35
2023-05-10T04:34:15.373Z,3.67
2023-05-10T04:36:43.727Z,3.03
2023-05-10T04:39:12.466Z,3.05
2023-05-10T04:41:40.854Z,2.80
2023-05-10T04:44:11.766Z,3.47
2023-05-10T04:46:40.768Z,2.80
2023-05-10T04:49:09.327Z,2.63
2023-05-10T04:51:37.532Z,3.00
2023-05-10T04:54:06.916Z,2.60
2023-05-10T04:56:35.388Z,3.17
2023-05-10T04:59:05.274Z,2.90
2023-05-10T05:01:34.067Z,3.42
2023-05-10T05:04:02.724Z,3.03
2023-05-10T05:06:31.189Z,3.17
2023-05-10T05:09:00.392Z,3.28
2023-05-10T05:11:29.071Z,3.08
2023-05-10T05:14:00.611Z,2.70
2023-05-10T05:16:32.010Z,3.30
2023-05-10T05:19:13.236Z,3.28
2023-05-10T05:21:44.238Z,3.17
2023-05-10T05:24:14.009Z,2.85
2023-05-10T05:26:41.428Z,2.88
2023-05-10T05:29:12.186Z,3.15
2023-05-10T05:31:40.164Z,2.80
2023-05-10T05:34:07.940Z,2.72
2023-05-10T05:36:41.613Z,2.88
2023-05-10T05:39:12.384Z,2.90
2023-05-10T05:41:39.473Z,2.67
2023-05-10T05:44:08.912Z,2.17
2023-05-10T05:46:37.130Z,2.30
2023-05-10T05:49:06.372Z,2.55
2023-05-10T05:51:36.810Z,2.53
2023-05-10T05:54:06.212Z,2.20
2023-05-10T05:56:34.659Z,2.50
2023-05-10T05:59:04.238Z,1.98
2023-05-10T06:01:37.035Z,2.72
2023-05-10T06:04:07.756Z,2.22
2023-05-10T06:06:39.196Z,2.25
2023-05-10T06:09:06.847Z,2.40
2023-05-10T06:11:35.514Z,2.08
2023-05-10T06:14:06.425Z,2.10
2023-05-10T06:16:35.615Z,2.80
2023-05-10T06:19:04.452Z,2.63
2023-05-10T06:21:33.702Z,2.50
2023-05-10T06:24:01.858Z,2.10
2023-05-10T06:26:30.149Z,2.05
2023-05-10T06:29:07.145Z,2.30
2023-05-10T06:31:35.914Z,2.38
2023-05-10T06:34:08.356Z,2.10
2023-05-10T06:36:38.155Z,2.28
2023-05-10T06:39:07.372Z,2.80
2023-05-10T06:41:39.499Z,2.60
2023-05-10T06:44:11.833Z,2.70
2023-05-10T06:46:43.565Z,2.40
2023-05-10T06:49:11.710Z,2.38
2023-05-10T06:51:40.355Z,1.85
2023-05-10T06:54:09.140Z,2.22
2023-05-10T06:56:48.304Z,2.33
2023-05-10T06:59:50.470Z,2.22
2023-05-10T07:02:20.105Z,1.42
2023-05-10T07:04:49.154Z,2.40
2023-05-10T07:09:48.345Z,2.38
2023-05-10T07:12:16.652Z,2.70
2023-05-10T07:14:46.547Z,2.60
2023-05-10T07:17:15.071Z,2.70
2023-05-10T07:19:46.244Z,2.95
2023-05-10T07:22:14.546Z,2.22
2023-05-10T07:24:42.457Z,2.53
2023-05-10T07:27:10.817Z,2.60
2023-05-10T07:29:42.118Z,2.45
2023-05-10T07:32:12.026Z,2.50
2023-05-10T07:34:45.487Z,2.33
2023-05-10T07:37:13.954Z,2.17
2023-05-10T07:39:45.041Z,2.30
2023-05-10T07:42:15.541Z,2.13
2023-05-10T07:44:43.495Z,2.45
2023-05-10T07:47:14.986Z,1.83
2023-05-10T07:49:43.475Z,2.70
2023-05-10T07:52:11.458Z,2.58
2023-05-10T07:54:39.304Z,2.20
2023-05-10T07:57:07.865Z,2.28
2023-05-10T07:59:36.589Z,2.08
2023-05-10T08:02:04.641Z,2.38
2023-05-10T08:04:32.547Z,2.38
2023-05-10T08:07:00.844Z,2.30
2023-05-10T08:09:29.769Z,2.10
2023-05-10T08:12:00.120Z,2.05
2023-05-10T08:14:31.335Z,2.20
2023-05-10T08:16:59.389Z,1.90
2023-05-10T08:19:29.696Z,2.33
2023-05-10T08:21:58.601Z,2.40
2023-05-10T08:24:27.268Z,2.40
2023-05-10T08:26:55.619Z,2.70
2023-05-10T08:29:24.001Z,2.25
2023-05-10T08:31:52.524Z,1.98
2023-05-10T08:34:22.254Z,2.28
2023-05-10T08:36:52.508Z,2.72
2023-05-10T08:39:29.707Z,2.22
2023-05-10T08:42:03.512Z,2.33
2023-05-10T08:44:34.014Z,2.45
2023-05-10T08:47:06.609Z,2.03
2023-05-10T08:49:35.486Z,2.20
2023-05-10T08:52:09.434Z,1.73
2023-05-10T08:54:38.355Z,1.98
2023-05-10T08:57:06.393Z,2.00
2023-05-10T08:59:34.508Z,1.98
2023-05-10T09:02:06.926Z,2.42
2023-05-10T09:04:37.989Z,2.03
2023-05-10T09:07:05.375Z,1.80
2023-05-10T09:09:36.162Z,1.60
2023-05-10T09:12:04.805Z,2.22
2023-05-10T09:14:36.494Z,1.58
2023-05-10T09:17:05.954Z,1.83
2023-05-10T09:19:34.018Z,2.35
2023-05-10T09:22:03.560Z,2.20
2023-05-10T09:24:32.597Z,1.92
2023-05-10T09:27:01.859Z,1.98
2023-05-10T09:29:41.723Z,1.80
2023-05-10T09:32:09.860Z,1.73
2023-05-10T09:34:41.283Z,2.10
2023-05-10T09:37:09.977Z,2.20
2023-05-10T09:39:43.862Z,2.17
2023-05-10T09:42:12.607Z,2.20
2023-05-10T09:44:44.445Z,1.95
2023-05-10T09:47:20.134Z,2.17
2023-05-10T09:49:52.783Z,2.22
2023-05-10T09:52:20.217Z,2.25
2023-05-10T09:54:55.053Z,2.20
2023-05-10T09:57:23.810Z,2.13
2023-05-10T09:59:52.328Z,2.20
2023-05-10T10:02:21.650Z,2.00
2023-05-10T10:04:58.057Z,2.22
2023-05-10T10:07:28.424Z,2.40
2023-05-10T10:09:57.657Z,2.10
2023-05-10T10:12:29.877Z,2.17
2023-05-10T10:14:58.848Z,2.08
2023-05-10T10:17:29.864Z,2.00
2023-05-10T10:20:00.456Z,1.95
2023-05-10T10:22:29.058Z,2.13
2023-05-10T10:24:57.953Z,1.95
2023-05-10T10:28:14.494Z,1.67
2023-05-10T10:30:52.872Z,1.60
2023-05-10T10:33:46.265Z,2.05
2023-05-10T10:36:56.466Z,2.53
2023-05-10T10:39:28.418Z,2.00
2023-05-10T10:41:57.874Z,2.13
2023-05-10T10:44:40.251Z,2.10
2023-05-10T10:47:19.582Z,2.05
2023-05-10T10:49:51.256Z,2.00
2023-05-10T10:54:52.407Z,1.98
2023-05-10T10:57:22.734Z,2.25
2023-05-10T10:59:50.143Z,1.92
2023-05-10T11:02:47.369Z,2.20
2023-05-10T11:05:36.271Z,2.47
2023-05-10T11:08:13.641Z,2.00
2023-05-10T11:10:41.866Z,2.05
2023-05-10T11:13:11.158Z,2.10
2023-05-10T11:15:51.693Z,1.88
2023-05-10T11:18:25.710Z,1.83
2023-05-10T11:20:57.470Z,1.80
2023-05-10T11:23:32.940Z,2.13
2023-05-10T11:26:04.629Z,2.15
2023-05-10T11:28:31.956Z,2.13
2023-05-10T11:30:59.133Z,2.20
2023-05-10T11:33:26.116Z,2.30
2023-05-10T11:35:54.716Z,2.25
2023-05-10T11:38:23.452Z,2.13
2023-05-10T11:40:55.336Z,2.40
2023-05-10T11:43:29.411Z,2.08
2023-05-10T11:45:56.525Z,1.80
2023-05-10T11:48:25.034Z,2.53
2023-05-10T11:50:52.166Z,2.00
2023-05-10T11:53:21.468Z,1.90
2023-05-10T11:55:50.013Z,2.38
2023-05-10T11:58:20.270Z,2.47
2023-05-10T12:00:47.815Z,2.42
2023-05-10T12:03:14.772Z,2.67
2023-05-10T12:05:43.259Z,2.28
2023-05-10T12:08:17.524Z,2.28
2023-05-10T12:10:44.516Z,2.33
2023-05-10T12:13:16.377Z,2.05
2023-05-10T12:15:44.749Z,2.70
2023-05-10T12:18:12.843Z,3.05
2023-05-10T12:20:41.288Z,2.80
2023-05-10T12:23:11.053Z,2.70
2023-05-10T12:25:39.250Z,2.17
2023-05-10T12:28:08.417Z,2.60
2023-05-10T12:30:36.998Z,2.72
2023-05-10T12:33:09.926Z,3.03
2023-05-10T12:35:47.814Z,2.35
2023-05-10T12:38:30.466Z,2.55
2023-05-10T12:41:06.101Z,2.63
2023-05-10T12:43:34.120Z,2.78
2023-05-10T12:46:12.404Z,2.58
2023-05-10T12:48:41.112Z,2.70
2023-05-10T12:51:14.457Z,4.38
2023-05-10T12:53:44.604Z,1.88
2023-05-10T12:56:12.745Z,2.85
2023-05-10T12:58:39.671Z,4.10
2023-05-10T13:01:07.086Z,2.88
2023-05-10T13:03:34.351Z,2.58
2023-05-10T13:06:04.333Z,3.03
2023-05-10T13:08:34.652Z,2.50
2023-05-10T13:11:03.321Z,2.47
2023-05-10T13:13:30.488Z,2.60
2023-05-10T13:15:58.255Z,2.40
2023-05-10T13:18:28.713Z,3.08
2023-05-10T13:20:57.782Z,2.67
2023-05-10T13:23:25.387Z,3.25
2023-05-10T13:25:52.234Z,2.30
2023-05-10T13:28:19.452Z,3.00
2023-05-10T13:30:46.332Z,2.78
2023-05-10T13:33:13.341Z,2.70
2023-05-10T13:35:40.786Z,2.85
2023-05-10T13:38:09.358Z,2.88
2023-05-10T13:40:37.254Z,2.42
2023-05-10T13:43:06.325Z,2.53
2023-05-10T13:45:34.133Z,2.85
2023-05-10T13:48:01.177Z,2.90
2023-05-10T13:50:28.268Z,2.47
2023-05-10T13:52:55.698Z,2.33
2023-05-10T13:55:23.364Z,2.88
2023-05-10T13:57:52.974Z,2.70
2023-05-10T14:00:20.203Z,2.67
2023-05-10T14:02:47.064Z,2.50
2023-05-10T14:05:14.158Z,2.55
2023-05-10T14:07:42.265Z,2.45
2023-05-10T14:10:09.552Z,2.33
2023-05-10T14:12:36.341Z,2.88
2023-05-10T14:15:04.160Z,2.78
2023-05-10T14:17:31.425Z,2.15
2023-05-10T14:19:58.612Z,2.38
2023-05-10T14:22:25.529Z,2.22
2023-05-10T14:24:52.433Z,3.70
2023-05-10T14:27:19.618Z,2.30
2023-05-10T14:29:46.722Z,2.03
2023-05-10T14:32:13.810Z,2.38
2023-05-10T14:34:40.757Z,2.00
2023-05-10T14:37:07.704Z,2.30
2023-05-10T14:39:35.247Z,2.40
2023-05-10T14:42:03.703Z,2.75
2023-05-10T14:44:33.655Z,2.15
2023-05-10T14:47:01.448Z,2.80
2023-05-10T14:49:30.775Z,2.58
2023-05-10T14:51:59.985Z,2.60
2023-05-10T14:54:29.720Z,2.28
2023-05-10T14:56:57.929Z,2.45
2023-05-10T14:59:24.947Z,2.10
2023-05-10T15:01:52.680Z,2.47
2023-05-10T15:04:19.996Z,2.03
2023-05-10T15:06:47.334Z,2.08
2023-05-10T15:09:14.169Z,2.00
2023-05-10T15:11:41.149Z,1.98
2023-05-10T15:14:08.311Z,2.33
2023-05-10T15:16:36.254Z,1.70
2023-05-10T15:19:05.821Z,1.98
2023-05-10T15:21:38.700Z,1.83
2023-05-10T15:24:07.268Z,2.30
2023-05-10T15:26:34.702Z,2.10
2023-05-10T15:29:02.344Z,1.88
2023-05-10T15:31:29.700Z,2.10
2023-05-10T15:34:02.755Z,2.30
2023-05-10T15:36:29.831Z,2.20
2023-05-10T15:38:57.095Z,2.00
2023-05-10T15:41:24.752Z,1.77
2023-05-10T15:43:51.729Z,1.90
2023-05-10T15:46:18.635Z,2.53
2023-05-10T15:48:45.479Z,1.95
2023-05-10T15:51:12.760Z,1.73
2023-05-10T15:53:46.519Z,2.13
2023-05-10T15:56:20.170Z,2.10
2023-05-10T15:58:47.278Z,1.92
2023-05-10T16:01:15.200Z,2.15
2023-05-10T16:03:42.094Z,2.20
2023-05-10T16:06:10.127Z,2.15
2023-05-10T16:08:37.580Z,2.17
2023-05-10T16:11:04.514Z,2.25
2023-05-10T16:13:31.405Z,2.40
2023-05-10T16:15:58.571Z,2.08
2023-05-10T16:18:26.020Z,2.33
2023-05-10T16:20:54.425Z,2.15
2023-05-10T16:23:22.116Z,2.05
2023-05-10T16:25:49.383Z,2.80
2023-05-10T16:28:16.351Z,2.33
2023-05-10T16:30:43.858Z,2.33
2023-05-10T16:33:11.079Z,2.50
2023-05-10T16:35:38.962Z,2.17
2023-05-10T16:38:06.150Z,2.35
2023-05-10T16:40:33.664Z,1.92
2023-05-10T16:43:02.563Z,1.80
2023-05-10T16:45:32.417Z,2.08
2023-05-10T16:47:59.496Z,2.53
2023-05-10T16:50:26.342Z,2.38
2023-05-10T16:52:53.251Z,1.90
2023-05-10T16:55:20.677Z,2.17
2023-05-10T16:57:48.286Z,2.22
2023-05-10T17:00:16.480Z,1.60
2023-05-10T17:02:44.176Z,2.00
2023-05-10T17:05:11.344Z,1.70
2023-05-10T17:07:38.684Z,2.30
2023-05-10T17:10:06.310Z,2.30
2023-05-10T17:12:33.881Z,2.50
2023-05-10T17:15:00.724Z,2.22
2023-05-10T17:17:27.853Z,1.88
2023-05-10T17:19:55.231Z,2.15
2023-05-10T17:22:22.243Z,2.38
2023-05-10T17:24:49.519Z,2.10
2023-05-10T17:27:16.624Z,2.08
2023-05-10T17:29:43.898Z,2.13
2023-05-10T17:32:11.166Z,2.03
2023-05-10T17:34:39.488Z,2.15
2023-05-10T17:37:09.607Z,2.20
2023-05-10T17:39:38.677Z,1.95
2023-05-10T17:42:07.643Z,2.15
2023-05-10T17:44:34.677Z,2.40
2023-05-10T17:47:01.721Z,1.83
2023-05-10T17:49:29.101Z,2.00
2023-05-10T17:51:56.173Z,2.00
2023-05-10T17:54:23.692Z,2.30
2023-05-10T17:56:50.672Z,2.30
2023-05-10T17:59:17.987Z,2.60
2023-05-10T18:01:45.024Z,2.38
2023-05-10T18:04:12.236Z,4.57
2023-05-10T18:06:39.514Z,4.53
2023-05-10T18:09:11.229Z,4.68
2023-05-10T18:11:40.599Z,5.05
2023-05-10T18:14:07.833Z,4.85
2023-05-10T18:16:35.120Z,4.47
2023-05-10T18:19:02.605Z,5.15
2023-05-10T18:21:30.372Z,4.93
2023-05-10T18:23:58.451Z,5.15
2023-05-10T18:26:26.479Z,5.22
2023-05-10T18:28:53.777Z,5.00
2023-05-10T18:31:21.107Z,5.10
2023-05-10T18:33:48.538Z,5.05
2023-05-10T18:36:17.659Z,4.68
2023-05-10T18:38:45.859Z,5.68
2023-05-10T18:41:14.692Z,4.95
2023-05-10T18:43:43.098Z,4.97
2023-05-10T18:46:11.160Z,4.75
2023-05-10T18:48:39.030Z,4.90
2023-05-10T18:51:07.166Z,5.57
2023-05-10T18:53:34.302Z,5.05
2023-05-10T18:56:01.681Z,5.18
2023-05-10T18:58:30.014Z,5.30
2023-05-10T19:00:58.649Z,5.40
2023-05-10T19:03:25.699Z,6.03
2023-05-10T19:05:52.539Z,5.57
2023-05-10T19:08:19.586Z,5.20
2023-05-10T19:10:46.718Z,5.72
2023-05-10T19:13:15.086Z,5.20
2023-05-10T19:15:42.152Z,5.95
2023-05-10T19:18:09.902Z,5.57
2023-05-10T19:20:41.714Z,7.07
2023-05-10T19:25:39.932Z,7.30
2023-05-10T19:28:07.208Z,7.60
2023-05-10T19:30:35.222Z,7.13
2023-05-10T19:33:05.445Z,7.07
2023-05-10T19:35:32.752Z,6.90
2023-05-10T19:38:00.014Z,7.25
2023-05-10T19:40:27.838Z,7.55
2023-05-10T19:42:57.537Z,7.50
2023-05-10T19:45:24.842Z,7.80
2023-05-10T19:47:52.195Z,7.68
2023-05-10T19:50:19.684Z,7.60
2023-05-10T19:52:46.849Z,7.70
2023-05-10T19:55:25.351Z,7.40
2023-05-10T19:57:53.367Z,6.70
2023-05-10T20:00:21.149Z,7.03
2023-05-10T20:02:49.573Z,6.95
2023-05-10T20:05:17.034Z,6.35
2023-05-10T20:07:44.627Z,6.43
2023-05-10T20:10:12.039Z,6.68
2023-05-10T20:12:39.479Z,6.55
2023-05-10T20:15:08.319Z,6.82
2023-05-10T20:17:36.090Z,6.72
2023-05-10T20:20:04.084Z,7.07
2023-05-10T20:22:31.008Z,7.05
2023-05-10T20:24:59.703Z,6.38
2023-05-10T20:27:30.694Z,6.97
2023-05-10T20:29:59.915Z,7.00
2023-05-10T20:32:28.498Z,6.97
2023-05-10T20:34:55.757Z,6.53
2023-05-10T20:37:23.631Z,5.97
2023-05-10T20:39:50.664Z,6.53
2023-05-10T20:42:18.641Z,6.47
2023-05-10T20:44:47.872Z,6.72
2023-05-10T20:47:16.098Z,6.82
2023-05-10T20:49:43.791Z,7.05
2023-05-10T20:52:11.063Z,6.85
2023-05-10T20:54:39.672Z,6.78
2023-05-10T20:57:06.975Z,6.70
2023-05-10T20:59:34.141Z,6.95
2023-05-10T21:02:01.367Z,6.60
2023-05-10T21:04:29.798Z,6.03
2023-05-10T21:06:59.802Z,5.95
2023-05-10T21:09:27.337Z,5.35
2023-05-10T21:11:54.641Z,6.28
2023-05-10T21:14:22.195Z,7.13
2023-05-10T21:16:51.506Z,6.43
2023-05-10T21:19:19.826Z,6.75
2023-05-10T21:21:47.585Z,6.10
2023-05-10T21:24:15.550Z,6.75
2023-05-10T21:26:43.333Z,6.97
2023-05-10T21:29:10.532Z,6.75
2023-05-10T21:31:37.990Z,7.15
2023-05-10T21:34:05.112Z,6.85
2023-05-10T21:36:32.696Z,7.45
2023-05-10T21:38:59.956Z,6.47
2023-05-10T21:41:26.926Z,6.65
2023-05-10T21:43:53.975Z,6.80
2023-05-10T21:46:21.134Z,7.45
2023-05-10T21:48:48.139Z,6.65
2023-05-10T21:51:15.206Z,6.40
2023-05-10T21:53:42.164Z,6.35
2023-05-10T21:56:09.552Z,5.88
2023-05-10T21:58:36.629Z,5.43
2023-05-10T22:01:03.921Z,5.00
2023-05-10T22:03:31.150Z,4.43
2023-05-10T22:05:58.836Z,4.25
2023-05-10T22:08:26.174Z,4.50
2023-05-10T22:10:53.257Z,4.05
2023-05-10T22:13:20.484Z,3.22
2023-05-10T22:15:47.372Z,4.60
2023-05-10T22:18:14.329Z,4.13
2023-05-10T22:20:41.247Z,4.07
2023-05-10T22:23:08.668Z,4.28
2023-05-10T22:25:35.717Z,4.30
2023-05-10T22:28:02.810Z,4.07
2023-05-10T22:30:31.510Z,4.25
2023-05-10T22:33:00.205Z,3.80
2023-05-10T22:35:27.378Z,3.92
2023-05-10T22:37:54.426Z,3.50
2023-05-10T22:40:21.656Z,3.97
2023-05-10T22:42:48.508Z,3.58
2023-05-10T22:45:15.636Z,3.55
2023-05-10T22:47:43.082Z,3.85
2023-05-10T22:50:12.516Z,3.80
2023-05-10T22:52:40.298Z,3.58
2023-05-10T22:55:07.871Z,3.40
2023-05-10T22:57:35.810Z,3.05
2023-05-10T23:00:05.005Z,3.40
2023-05-10T23:02:32.331Z,3.20
2023-05-10T23:04:59.412Z,2.97
2023-05-10T23:07:26.746Z,2.70
2023-05-10T23:09:53.719Z,3.13
2023-05-10T23:12:20.545Z,2.88
2023-05-10T23:14:47.669Z,2.38
2023-05-10T23:17:15.023Z,2.65
2023-05-10T23:19:42.148Z,2.50
2023-05-10T23:22:10.176Z,2.90
2023-05-10T23:24:37.377Z,2.60
2023-05-10T23:27:05.118Z,2.88
2023-05-10T23:29:32.801Z,2.72
2023-05-10T23:32:00.133Z,2.55
2023-05-10T23:34:27.258Z,2.60
2023-05-10T23:36:54.426Z,2.60
2023-05-10T23:39:21.395Z,2.65
2023-05-10T23:41:48.226Z,2.78
2023-05-10T23:44:15.708Z,2.45
2023-05-10T23:46:42.680Z,2.50
2023-05-10T23:49:09.890Z,2.78
2023-05-10T23:51:37.156Z,2.30
2023-05-10T23:54:04.335Z,2.40
2023-05-10T23:56:31.538Z,2.70
2023-05-10T23:58:58.725Z,2.60
